Time;durP1;ratioP1;P1;durP2;ratioP2;P2;SDS_P1;SDS_P2;PMS_P1;PMS_P2;Temp;Humidity;BMP_temperature;BMP_pressure;BME280_temperature;BME280_humidity;BME280_pressure;Samples;Min_cycle;Max_cycle;Signal;HPM_P1;HPM_P2
2023/01/01 00:00:48;;;;;;;17.67;10.00;;;13.40;38.50;;;;;;5050657;28;20409;-73
2023/01/01 00:03:14;;;;;;;15.53;7.33;;;13.50;21.80;;;;;;5032803;28;20763;-73
2023/01/01 00:05:39;;;;;;;15.30;8.50;;;13.50;1.00;;;;;;5030373;28;20828;-72
2023/01/01 00:08:05;;;;;;;8.03;6.17;;;13.50;1.00;;;;;;5032676;28;20409;-72
2023/01/01 00:10:32;;;;;;;13.93;7.20;;;13.50;1.00;;;;;;5034645;28;20245;-70
2023/01/01 00:12:58;;;;;;;9.57;7.33;;;13.50;1.00;;;;;;5054695;28;20388;-70
2023/01/01 00:15:26;;;;;;;14.47;10.13;;;13.50;1.00;;;;;;5047168;28;20434;-70
2023/01/01 00:17:52;;;;;;;26.87;16.77;;;13.50;1.00;;;;;;5035923;28;20377;-70
2023/01/01 00:20:18;;;;;;;18.17;12.47;;;13.60;1.00;;;;;;5042437;28;20454;-70
2023/01/01 00:22:43;;;;;;;11.60;8.40;;;13.50;1.00;;;;;;5056178;28;20409;-70
2023/01/01 00:25:12;;;;;;;11.17;9.07;;;13.50;1.00;;;;;;5050488;28;20556;-68
2023/01/01 00:27:39;;;;;;;16.77;8.00;;;13.50;1.00;;;;;;5037187;28;20206;-71
2023/01/01 00:30:05;;;;;;;13.03;8.27;;;13.50;1.00;;;;;;5039490;28;20449;-69
2023/01/01 00:32:31;;;;;;;12.43;8.33;;;13.50;1.00;;;;;;5036196;28;20385;-69
2023/01/01 00:34:57;;;;;;;10.73;8.03;;;13.50;1.00;;;;;;5035195;28;20411;-69
2023/01/01 00:37:23;;;;;;;9.13;6.57;;;13.50;1.00;;;;;;5035890;28;20527;-70
2023/01/01 00:39:49;;;;;;;10.40;7.03;;;13.50;1.00;;;;;;5038961;28;20384;-70
2023/01/01 00:42:14;;;;;;;10.90;6.43;;;13.50;1.00;;;;;;5055830;28;20248;-69
2023/01/01 00:44:40;;;;;;;7.87;5.67;;;13.60;1.00;;;;;;5050394;28;20660;-70
2023/01/01 00:47:06;;;;;;;11.80;6.10;;;13.60;1.00;;;;;;5054503;28;20179;-71
2023/01/01 00:49:32;;;;;;;12.53;7.20;;;13.70;1.00;;;;;;5054785;28;20190;-69
2023/01/01 00:51:57;;;;;;;11.63;6.00;;;13.70;1.00;;;;;;5055461;28;20163;-69
2023/01/01 00:54:23;;;;;;;17.60;7.70;;;13.60;1.00;;;;;;5051273;28;20198;-69
2023/01/01 00:56:49;;;;;;;14.63;7.47;;;13.60;1.00;;;;;;5035557;28;20168;-70
2023/01/01 00:59:14;;;;;;;10.13;6.90;;;13.70;1.00;;;;;;5035028;28;20182;-70
2023/01/01 01:01:40;;;;;;;15.10;6.20;;;13.70;1.00;;;;;;5055520;28;20175;-69
2023/01/01 01:04:08;;;;;;;12.30;6.70;;;13.80;1.00;;;;;;5053835;28;20194;-71
2023/01/01 01:06:34;;;;;;;8.20;6.87;;;13.70;1.00;;;;;;5035780;28;20178;-69
2023/01/01 01:09:00;;;;;;;7.47;5.87;;;13.70;1.00;;;;;;5035418;28;20475;-71
2023/01/01 01:11:26;;;;;;;23.30;7.10;;;13.80;1.00;;;;;;5052019;28;20387;-69
2023/01/01 01:13:54;;;;;;;10.30;6.23;;;13.90;99.90;;;;;;5054055;28;20179;-70
2023/01/01 01:16:30;;;;;;;11.20;6.77;;;13.90;99.90;;;;;;5038168;28;20527;-69
2023/01/01 01:18:59;;;;;;;10.37;6.00;;;14.00;99.90;;;;;;5035210;28;20392;-69
2023/01/01 01:21:26;;;;;;;17.43;6.63;;;14.00;99.90;;;;;;5049000;28;20407;-69
2023/01/01 01:23:53;;;;;;;8.40;5.90;;;14.10;99.90;;;;;;5055019;28;20383;-69
2023/01/01 01:26:20;;;;;;;11.63;6.53;;;14.10;99.90;;;;;;5039933;28;20414;-70
2023/01/01 01:28:46;;;;;;;9.50;6.20;;;14.10;99.90;;;;;;5034894;28;20432;-69
2023/01/01 01:31:12;;;;;;;17.57;5.93;;;14.10;99.90;;;;;;5043234;28;20880;-69
2023/01/01 01:33:39;;;;;;;12.97;6.90;;;14.00;99.90;;;;;;5036897;28;20796;-69
2023/01/01 01:36:05;;;;;;;15.80;6.77;;;14.00;99.90;;;;;;5033687;28;20905;-69
2023/01/01 01:38:31;;;;;;;11.90;6.93;;;14.00;99.90;;;;;;5044117;28;20391;-69
2023/01/01 01:40:57;;;;;;;12.33;6.00;;;14.00;99.90;;;;;;5040452;28;20401;-69
2023/01/01 01:43:32;;;;;;;13.03;6.70;;;14.10;99.90;;;;;;5042239;28;20742;-69
2023/01/01 01:46:09;;;;;;;14.43;6.60;;;14.10;99.90;;;;;;5053521;28;20411;-69
2023/01/01 01:48:48;;;;;;;10.37;7.50;;;14.10;99.90;;;;;;5045387;28;20446;-69
2023/01/01 01:51:16;;;;;;;12.43;5.63;;;14.10;99.90;;;;;;5034146;28;20409;-70
2023/01/01 01:53:50;;;;;;;17.17;6.07;;;14.10;99.90;;;;;;5035451;28;20443;-70
2023/01/01 01:56:23;;;;;;;12.70;6.87;;;14.20;99.90;;;;;;5033543;28;20861;-67
2023/01/01 01:58:49;;;;;;;9.97;6.63;;;14.10;99.90;;;;;;5043250;28;20421;-69
2023/01/01 02:01:15;;;;;;;12.43;7.10;;;14.20;99.90;;;;;;5054353;28;20968;-70
2023/01/01 02:03:59;;;;;;;9.70;6.67;;;14.20;99.90;;;;;;5046653;28;20428;-70
2023/01/01 02:06:30;;;;;;;15.50;8.07;;;14.30;99.90;;;;;;5034440;28;20424;-69
2023/01/01 02:09:01;;;;;;;17.80;7.23;;;14.30;99.90;;;;;;5034188;28;21023;-69
2023/01/01 02:11:26;;;;;;;10.67;7.53;;;14.30;99.90;;;;;;5041860;28;20409;-70
2023/01/01 02:13:54;;;;;;;13.07;7.43;;;14.20;99.90;;;;;;5052314;28;20396;-68
2023/01/01 02:16:36;;;;;;;9.30;6.50;;;14.30;99.90;;;;;;5051814;28;20191;-70
2023/01/01 02:19:04;;;;;;;14.80;9.30;;;14.20;99.90;;;;;;5054209;28;20407;-66
2023/01/01 02:21:38;;;;;;;10.10;6.53;;;14.20;99.90;;;;;;5053169;28;20380;-69
2023/01/01 02:24:13;;;;;;;16.67;8.43;;;14.20;99.90;;;;;;5053694;28;20462;-70
2023/01/01 02:26:45;;;;;;;20.40;8.00;;;14.20;99.90;;;;;;5047515;28;20426;-69
2023/01/01 02:29:29;;;;;;;11.87;6.00;;;14.20;99.90;;;;;;5033658;28;20481;-69
2023/01/01 02:32:09;;;;;;;14.07;6.90;;;14.20;99.90;;;;;;5040392;28;20490;-69
2023/01/01 02:34:58;;;;;;;15.27;6.50;;;14.20;99.90;;;;;;5052556;28;20421;-69
2023/01/01 02:37:27;;;;;;;8.80;6.50;;;14.20;99.90;;;;;;5042946;28;20404;-71
2023/01/01 02:39:56;;;;;;;7.13;6.20;;;14.10;99.90;;;;;;5033745;28;20921;-70
2023/01/01 02:42:26;;;;;;;11.30;6.00;;;14.10;99.90;;;;;;5043153;28;20522;-69
2023/01/01 02:44:54;;;;;;;6.13;5.50;;;14.10;99.90;;;;;;5052351;28;20444;-70
2023/01/01 02:47:20;;;;;;;11.97;6.43;;;14.20;99.90;;;;;;5049517;28;20426;-70
2023/01/01 02:49:59;;;;;;;15.30;8.20;;;14.20;99.90;;;;;;5052825;28;20445;-70
2023/01/01 02:52:47;;;;;;;13.70;6.00;;;14.20;99.90;;;;;;5052622;28;20413;-70
2023/01/01 02:55:36;;;;;;;12.30;7.57;;;14.20;99.90;;;;;;5051373;28;20440;-71
2023/01/01 03:00:58;;;;;;;9.27;6.43;;;14.20;99.90;;;;;;5035504;28;20461;-70
2023/01/01 03:03:31;;;;;;;15.20;8.47;;;14.20;99.90;;;;;;5033283;28;20396;-69
2023/01/01 03:06:21;;;;;;;18.53;7.83;;;14.20;99.90;;;;;;5032232;28;20430;-70
2023/01/01 03:09:22;;;;;;;10.20;6.30;;;14.20;99.90;;;;;;5033783;28;20446;-70
2023/01/01 03:12:00;;;;;;;9.67;6.60;;;14.10;99.90;;;;;;5035703;28;20723;-69
2023/01/01 03:14:29;;;;;;;13.20;7.30;;;14.10;99.90;;;;;;5052168;28;20968;-69
2023/01/01 03:17:26;;;;;;;14.17;7.23;;;14.10;99.90;;;;;;5049641;28;20439;-70
2023/01/01 03:19:55;;;;;;;11.43;7.70;;;14.10;99.90;;;;;;5032828;28;20400;-69
2023/01/01 03:22:27;;;;;;;15.10;8.33;;;14.10;99.90;;;;;;5039065;28;20419;-69
2023/01/01 03:25:09;;;;;;;20.63;8.90;;;14.10;99.90;;;;;;5051981;28;20400;-70
2023/01/01 03:27:52;;;;;;;16.20;9.33;;;14.10;99.90;;;;;;5044830;28;20397;-71
2023/01/01 03:30:20;;;;;;;16.93;9.20;;;14.10;99.90;;;;;;5032934;28;20500;-68
2023/01/01 03:32:59;;;;;;;17.60;10.13;;;14.10;99.90;;;;;;5041040;28;20384;-68
2023/01/01 03:35:29;;;;;;;16.57;11.70;;;14.10;99.90;;;;;;5050403;28;20523;-69
2023/01/01 03:37:59;;;;;;;17.60;10.90;;;14.10;99.90;;;;;;5042135;28;20401;-69
2023/01/01 03:40:27;;;;;;;16.27;11.33;;;14.10;99.90;;;;;;5033138;28;20756;-69
2023/01/01 03:43:01;;;;;;;16.73;10.07;;;14.10;99.90;;;;;;5041014;28;20453;-69
2023/01/01 03:45:32;;;;;;;19.37;10.90;;;14.00;99.90;;;;;;5052138;28;20424;-69
2023/01/01 03:47:59;;;;;;;21.30;12.07;;;13.90;99.90;;;;;;5048060;28;20392;-69
2023/01/01 03:50:36;;;;;;;16.27;12.47;;;13.80;99.90;;;;;;5036889;28;20470;-69
2023/01/01 03:53:18;;;;;;;20.50;13.43;;;13.70;99.90;;;;;;5045097;28;20392;-70
2023/01/01 03:56:06;;;;;;;25.70;14.27;;;13.60;99.90;;;;;;5055877;28;20439;-69
2023/01/01 03:58:43;;;;;;;16.53;12.07;;;13.30;99.90;;;;;;5052706;28;20392;-69
2023/01/01 04:01:25;;;;;;;19.90;14.10;;;13.20;99.90;;;;;;5055441;28;20773;-70
2023/01/01 04:03:52;;;;;;;23.77;15.53;;;13.00;99.90;;;;;;5055381;28;20408;-70
2023/01/01 04:06:18;;;;;;;24.77;14.97;;;13.00;1.00;;;;;;5054347;28;20825;-70
2023/01/01 04:08:45;;;;;;;23.63;16.50;;;12.90;1.00;;;;;;5039940;28;20451;-69
2023/01/01 04:14:03;;;;;;;21.93;14.80;;;12.80;1.00;;;;;;5054563;28;20426;-69
2023/01/01 04:16:29;;;;;;;30.10;17.13;;;12.70;1.00;;;;;;5054817;28;20828;-70
2023/01/01 04:18:54;;;;;;;26.10;15.87;;;12.70;1.00;;;;;;5056320;28;20262;-69
2023/01/01 04:21:20;;;;;;;35.33;17.50;;;12.60;1.00;;;;;;5045695;28;20175;-71
2023/01/01 04:23:46;;;;;;;25.60;16.97;;;12.60;1.00;;;;;;5034655;28;20177;-70
2023/01/01 04:26:13;;;;;;;25.17;17.17;;;12.60;1.00;;;;;;5043634;28;20627;-70
2023/01/01 04:28:39;;;;;;;29.00;17.80;;;12.60;1.00;;;;;;5055935;28;20174;-70
2023/01/01 04:31:05;;;;;;;31.20;18.97;;;12.60;1.00;;;;;;5048832;28;20420;-70
2023/01/01 04:33:31;;;;;;;31.33;19.27;;;12.60;1.00;;;;;;5036018;28;20365;-70
2023/01/01 04:36:06;;;;;;;30.40;18.10;;;12.60;1.00;;;;;;5040194;28;20187;-70
2023/01/01 04:38:36;;;;;;;30.37;20.20;;;12.50;1.00;;;;;;5055854;28;20396;-70
2023/01/01 04:41:03;;;;;;;27.53;18.00;;;12.50;1.00;;;;;;5048763;28;20422;-70
2023/01/01 04:43:30;;;;;;;27.13;19.20;;;12.50;1.00;;;;;;5035831;28;20398;-70
2023/01/01 04:45:57;;;;;;;23.97;16.40;;;12.60;1.00;;;;;;5038594;28;20420;-72
2023/01/01 04:48:24;;;;;;;26.87;18.87;;;12.60;1.00;;;;;;5055823;28;20450;-69
2023/01/01 04:51:01;;;;;;;27.93;18.70;;;12.70;1.00;;;;;;5052618;28;20424;-70
2023/01/01 04:53:32;;;;;;;25.17;17.30;;;12.60;1.00;;;;;;5035713;28;20390;-69
2023/01/01 04:56:04;;;;;;;24.77;17.07;;;12.60;1.00;;;;;;5037427;28;20769;-71
2023/01/01 04:58:31;;;;;;;23.10;15.07;;;12.70;1.00;;;;;;5054043;28;20455;-71
2023/01/01 05:00:56;;;;;;;21.40;15.10;;;12.70;1.00;;;;;;5052698;28;20391;-69
2023/01/01 05:03:22;;;;;;;27.40;16.90;;;12.70;1.00;;;;;;5035570;28;20381;-68
2023/01/01 05:06:08;;;;;;;22.43;15.37;;;12.70;1.00;;;;;;5034228;28;20290;-71
2023/01/01 05:08:36;;;;;;;26.23;16.80;;;12.80;1.00;;;;;;5055347;28;20391;-70
2023/01/01 05:11:04;;;;;;;24.73;15.80;;;12.90;1.00;;;;;;5051402;28;20411;-69
2023/01/01 05:13:30;;;;;;;24.63;16.80;;;12.80;1.00;;;;;;5055277;28;20402;-71
2023/01/01 05:15:56;;;;;;;17.83;14.93;;;12.90;1.00;;;;;;5052800;28;20490;-68
2023/01/01 05:18:22;;;;;;;27.67;17.20;;;12.90;1.00;;;;;;5055242;28;20173;-68
2023/01/01 05:20:47;;;;;;;29.00;18.30;;;12.80;1.00;;;;;;5053428;28;20176;-71
2023/01/01 05:23:17;;;;;;;19.63;14.13;;;12.80;1.00;;;;;;5043867;28;20167;-71
2023/01/01 05:25:43;;;;;;;24.63;16.97;;;12.60;1.00;;;;;;5054206;28;20183;-68
2023/01/01 05:28:09;;;;;;;28.83;17.37;;;12.50;1.00;;;;;;5054091;28;20755;-72
2023/01/01 05:30:39;;;;;;;29.77;17.40;;;12.40;1.00;;;;;;5053682;28;20480;-71
2023/01/01 05:33:05;;;;;;;31.43;18.90;;;12.30;1.00;;;;;;5054324;28;20178;-68
2023/01/01 05:35:30;;;;;;;26.37;18.10;;;12.40;1.00;;;;;;5034216;28;20822;-69
2023/01/01 05:37:56;;;;;;;30.40;19.00;;;12.30;1.00;;;;;;5034979;28;20629;-69
2023/01/01 05:40:22;;;;;;;30.60;17.40;;;12.30;1.00;;;;;;5052437;28;20309;-68
2023/01/01 05:42:48;;;;;;;29.47;18.70;;;12.30;1.00;;;;;;5054754;28;20174;-71
2023/01/01 05:45:14;;;;;;;31.70;18.03;;;12.30;1.00;;;;;;5037172;28;20207;-72
2023/01/01 05:47:40;;;;;;;25.63;15.10;;;12.40;1.00;;;;;;5034780;28;20390;-71
2023/01/01 05:50:06;;;;;;;25.80;18.00;;;12.40;1.00;;;;;;5047101;28;20276;-69
2023/01/01 05:52:32;;;;;;;34.03;19.13;;;12.30;1.00;;;;;;5054289;28;20163;-72
2023/01/01 05:54:58;;;;;;;26.93;17.80;;;12.40;1.00;;;;;;5039318;28;21007;-70
2023/01/01 05:57:24;;;;;;;26.20;16.37;;;12.40;1.00;;;;;;5033514;28;20268;-70
2023/01/01 05:59:49;;;;;;;23.00;16.57;;;12.40;1.00;;;;;;5045549;28;20431;-70
2023/01/01 06:02:15;;;;;;;28.17;13.97;;;12.50;1.00;;;;;;5054318;28;20662;-69
2023/01/01 06:04:41;;;;;;;25.37;15.03;;;12.50;1.00;;;;;;5043577;28;20607;-69
2023/01/01 06:07:06;;;;;;;21.90;15.10;;;12.60;1.00;;;;;;5033422;28;20230;-71
2023/01/01 06:09:32;;;;;;;18.60;12.57;;;12.60;1.00;;;;;;5041571;28;20206;-71
2023/01/01 06:11:58;;;;;;;25.23;14.60;;;12.60;1.00;;;;;;5054225;28;20225;-70
2023/01/01 06:14:23;;;;;;;19.60;10.90;;;12.60;1.00;;;;;;5049580;28;20571;-69
2023/01/01 06:16:49;;;;;;;20.70;13.07;;;12.70;1.00;;;;;;5054026;28;20214;-71
2023/01/01 06:19:15;;;;;;;22.20;12.70;;;12.70;1.00;;;;;;5046525;28;20175;-69
2023/01/01 06:21:40;;;;;;;14.60;11.47;;;12.70;1.00;;;;;;5047812;28;20198;-70
2023/01/01 06:24:07;;;;;;;22.37;12.37;;;12.60;1.00;;;;;;5052969;28;20218;-71
2023/01/01 06:26:32;;;;;;;14.90;10.37;;;12.70;1.00;;;;;;5052967;28;20624;-72
2023/01/01 06:29:00;;;;;;;15.33;10.10;;;12.70;1.00;;;;;;5048815;28;20452;-71
2023/01/01 06:31:27;;;;;;;15.53;10.57;;;12.70;1.00;;;;;;5033919;28;20214;-70
2023/01/01 06:33:53;;;;;;;13.53;8.10;;;12.70;1.00;;;;;;5036846;28;20419;-70
2023/01/01 06:36:20;;;;;;;10.30;7.23;;;12.70;1.00;;;;;;5032942;28;20457;-70
2023/01/01 06:38:49;;;;;;;14.80;8.67;;;12.70;1.00;;;;;;5033730;28;20483;-69
2023/01/01 06:41:21;;;;;;;12.03;7.10;;;12.70;1.00;;;;;;5033729;28;20460;-71
2023/01/01 06:43:47;;;;;;;7.23;5.13;;;12.70;1.00;;;;;;5038607;28;20392;-69
2023/01/01 06:46:17;;;;;;;10.50;6.80;;;12.70;1.00;;;;;;5052518;28;20536;-71
2023/01/01 06:48:43;;;;;;;10.47;6.37;;;12.70;1.00;;;;;;5048604;28;20476;-72
2023/01/01 06:51:18;;;;;;;6.67;5.33;;;12.70;1.00;;;;;;5032618;28;20410;-70
2023/01/01 06:53:44;;;;;;;7.70;5.57;;;12.70;1.00;;;;;;5036863;28;20444;-70
2023/01/01 06:56:11;;;;;;;13.33;5.90;;;12.70;1.00;;;;;;5051203;28;20406;-70
2023/01/01 06:58:37;;;;;;;7.63;5.90;;;12.60;1.00;;;;;;5050931;28;20408;-68
2023/01/01 07:01:07;;;;;;;8.87;5.37;;;12.60;1.00;;;;;;5033356;28;20409;-72
2023/01/01 07:03:33;;;;;;;11.10;5.27;;;12.50;1.00;;;;;;5033911;28;20160;-70
2023/01/01 07:05:59;;;;;;;8.10;4.77;;;12.50;1.00;;;;;;5051608;28;20392;-73
2023/01/01 07:08:24;;;;;;;9.27;4.33;;;12.50;1.00;;;;;;5052053;28;20387;-73
2023/01/01 07:10:50;;;;;;;5.23;4.57;;;12.50;1.00;;;;;;5033550;28;20203;-71
2023/01/01 07:13:16;;;;;;;8.53;5.30;;;12.50;1.00;;;;;;5033125;28;20167;-72
2023/01/01 07:15:43;;;;;;;6.60;4.73;;;12.50;1.00;;;;;;5049571;28;20194;-70
2023/01/01 07:18:09;;;;;;;8.10;4.97;;;12.50;1.00;;;;;;5052998;28;20166;-71
2023/01/01 07:20:34;;;;;;;11.50;5.30;;;12.50;1.00;;;;;;5035922;28;20425;-71
2023/01/01 07:23:03;;;;;;;6.43;5.20;;;12.50;1.00;;;;;;5033081;28;20402;-69
2023/01/01 07:25:29;;;;;;;9.30;5.33;;;12.50;1.00;;;;;;5045906;28;20198;-71
2023/01/01 07:27:54;;;;;;;8.77;5.53;;;12.40;1.00;;;;;;5052919;28;20918;-71
2023/01/01 07:30:20;;;;;;;9.93;6.57;;;12.40;1.00;;;;;;5039782;28;20203;-70
2023/01/01 07:32:46;;;;;;;7.27;6.00;;;12.40;1.00;;;;;;5033069;28;20171;-68
2023/01/01 07:35:11;;;;;;;6.90;5.60;;;12.40;1.00;;;;;;5033794;28;20191;-69
2023/01/01 07:37:37;;;;;;;11.07;6.47;;;12.40;1.00;;;;;;5032996;28;20195;-69
2023/01/01 07:40:03;;;;;;;6.40;5.33;;;12.40;1.00;;;;;;5033075;28;20245;-68
2023/01/01 07:42:29;;;;;;;9.03;5.40;;;12.30;1.00;;;;;;5032971;28;20259;-70
2023/01/01 07:44:54;;;;;;;10.40;6.47;;;12.40;1.00;;;;;;5042437;28;20498;-70
2023/01/01 07:47:23;;;;;;;5.13;4.70;;;12.40;1.00;;;;;;5052642;28;20217;-69
2023/01/01 07:49:49;;;;;;;6.73;5.20;;;12.40;1.00;;;;;;5048640;28;20230;-68
2023/01/01 07:52:15;;;;;;;13.60;4.87;;;12.50;1.00;;;;;;5052738;28;20402;-67
2023/01/01 07:54:41;;;;;;;6.70;4.90;;;12.50;1.00;;;;;;5050904;28;20465;-70
2023/01/01 07:57:07;;;;;;;8.77;5.33;;;12.50;1.00;;;;;;5051398;28;20384;-71
2023/01/01 07:59:33;;;;;;;9.47;5.27;;;12.50;1.00;;;;;;5040561;28;20404;-70
2023/01/01 08:01:58;;;;;;;6.30;4.60;;;12.60;1.00;;;;;;5032777;28;20171;-71
2023/01/01 08:04:25;;;;;;;8.30;5.00;;;12.60;1.00;;;;;;5038655;28;20194;-72
2023/01/01 08:06:52;;;;;;;6.43;5.27;;;12.60;1.00;;;;;;5052604;28;20171;-70
2023/01/01 08:09:18;;;;;;;9.23;4.83;;;12.60;1.00;;;;;;5051639;28;20464;-70
2023/01/01 08:11:44;;;;;;;13.23;4.40;;;12.60;1.00;;;;;;5051611;28;20763;-73
2023/01/01 08:14:10;;;;;;;6.60;4.70;;;12.70;1.00;;;;;;5036420;28;20424;-71
2023/01/01 08:16:35;;;;;;;10.17;6.43;;;12.80;1.00;;;;;;5030919;28;20393;-73
2023/01/01 08:19:01;;;;;;;5.87;4.37;;;12.80;1.00;;;;;;5044774;28;20460;-71
2023/01/01 08:21:27;;;;;;;7.30;4.63;;;12.80;1.00;;;;;;5050479;28;20179;-71
2023/01/01 08:23:52;;;;;;;7.33;4.27;;;12.80;1.00;;;;;;5038900;28;20203;-71
2023/01/01 08:26:29;;;;;;;5.63;4.53;;;12.80;1.00;;;;;;5030633;28;20233;-72
2023/01/01 08:28:55;;;;;;;10.27;4.40;;;12.70;1.00;;;;;;5043948;28;20180;-72
2023/01/01 08:31:22;;;;;;;9.73;4.83;;;12.70;1.00;;;;;;5054031;28;20393;-73
2023/01/01 08:33:47;;;;;;;4.93;4.13;;;12.70;1.00;;;;;;5045516;28;20389;-72
2023/01/01 08:36:15;;;;;;;7.30;4.03;;;12.70;1.00;;;;;;5035172;28;20920;-72
2023/01/01 08:38:41;;;;;;;7.73;5.03;;;12.70;1.00;;;;;;5043122;28;20167;-71
2023/01/01 08:41:07;;;;;;;9.80;4.90;;;12.80;1.00;;;;;;5055409;28;20421;-70
2023/01/01 08:43:33;;;;;;;8.27;5.50;;;12.80;1.00;;;;;;5048489;28;20770;-71
2023/01/01 08:45:59;;;;;;;11.50;5.60;;;12.80;1.00;;;;;;5034861;28;20457;-72
2023/01/01 08:48:25;;;;;;;6.23;4.80;;;12.80;1.00;;;;;;5037971;28;20267;-71
2023/01/01 08:50:59;;;;;;;7.43;5.03;;;12.80;1.00;;;;;;5035690;28;20462;-72
2023/01/01 08:53:25;;;;;;;10.60;4.70;;;12.80;1.00;;;;;;5035820;28;20396;-71
2023/01/01 08:56:05;;;;;;;8.93;4.27;;;12.80;1.00;;;;;;5034719;28;20384;-71
2023/01/01 08:58:32;;;;;;;8.97;3.73;;;12.80;99.90;;;;;;5044279;28;20384;-73
2023/01/01 09:00:58;;;;;;;4.43;4.03;;;12.80;99.90;;;;;;5053891;28;20376;-73
2023/01/01 09:03:24;;;;;;;7.30;4.33;;;12.80;99.90;;;;;;5051361;28;20395;-70
2023/01/01 09:05:51;;;;;;;6.60;3.80;;;12.80;99.90;;;;;;5053433;28;20187;-73
2023/01/01 09:08:16;;;;;;;5.83;3.47;;;12.80;99.90;;;;;;5053280;28;20497;-72
2023/01/01 09:10:43;;;;;;;7.10;3.70;;;12.80;99.90;;;;;;5055321;28;20521;-71
2023/01/01 09:13:10;;;;;;;4.10;3.13;;;12.80;99.90;;;;;;5047307;28;20393;-72
2023/01/01 09:15:36;;;;;;;6.20;3.20;;;12.80;99.90;;;;;;5034395;28;20397;-72
2023/01/01 09:18:01;;;;;;;7.47;2.93;;;12.80;99.90;;;;;;5041029;28;20396;-73
2023/01/01 09:20:27;;;;;;;7.27;3.13;;;12.80;99.90;;;;;;5050466;28;20816;-73
2023/01/01 09:22:53;;;;;;;2.40;2.20;;;12.70;99.90;;;;;;5055160;28;20167;-72
2023/01/01 09:25:18;;;;;;;2.37;1.90;;;12.70;99.90;;;;;;5054278;28;20256;-72
2023/01/01 09:27:44;;;;;;;5.57;2.80;;;12.70;99.90;;;;;;5055245;28;20225;-72
2023/01/01 09:30:11;;;;;;;8.60;3.00;;;12.70;99.90;;;;;;5054910;28;20674;-72
2023/01/01 09:32:37;;;;;;;4.30;2.27;;;12.70;99.90;;;;;;5053693;28;20175;-71
2023/01/01 09:35:03;;;;;;;4.80;2.13;;;12.70;99.90;;;;;;5052856;28;20787;-72
2023/01/01 09:37:30;;;;;;;8.10;2.90;;;12.70;99.90;;;;;;5054454;28;20167;-72
2023/01/01 09:39:56;;;;;;;8.33;3.23;;;12.70;99.90;;;;;;5054734;28;20821;-72
2023/01/01 09:42:40;;;;;;;9.83;3.33;;;12.80;99.90;;;;;;5053787;28;20415;-72
2023/01/01 09:45:33;;;;;;;7.43;2.30;;;12.70;99.90;;;;;;5054068;28;20426;-72
2023/01/01 09:48:05;;;;;;;11.10;3.63;;;12.80;99.90;;;;;;5053635;28;20436;-73
2023/01/01 09:50:41;;;;;;;8.00;2.20;;;12.80;99.90;;;;;;5053346;28;20814;-73
2023/01/01 09:53:31;;;;;;;3.63;2.07;;;12.80;99.90;;;;;;5054714;28;20402;-73
2023/01/01 09:56:01;;;;;;;5.83;2.30;;;12.80;99.90;;;;;;5053075;28;20400;-73
2023/01/01 09:58:32;;;;;;;3.67;2.80;;;12.80;99.90;;;;;;5053498;28;20380;-72
2023/01/01 10:01:44;;;;;;;17.97;3.30;;;12.80;99.90;;;;;;5054421;28;20441;-71
2023/01/01 10:04:26;;;;;;;4.90;2.80;;;12.80;99.90;;;;;;5053962;28;20432;-72
2023/01/01 10:07:08;;;;;;;6.20;3.20;;;12.80;99.90;;;;;;5054307;28;20384;-72
2023/01/01 10:09:46;;;;;;;11.57;2.40;;;12.80;99.90;;;;;;5054162;28;20445;-72
2023/01/01 10:12:35;;;;;;;2.50;1.67;;;12.70;99.90;;;;;;5054095;28;20406;-72
2023/01/01 10:15:28;;;;;;;12.13;3.50;;;12.70;99.90;;;;;;5053105;28;20392;-71
2023/01/01 10:17:59;;;;;;;7.67;2.40;;;12.60;99.90;;;;;;5043938;28;20555;-73
2023/01/01 10:20:34;;;;;;;9.50;3.00;;;12.60;99.90;;;;;;5054002;28;20390;-72
2023/01/01 10:23:13;;;;;;;2.83;2.63;;;12.50;99.90;;;;;;5053028;28;20395;-74
2023/01/01 10:25:40;;;;;;;6.83;2.10;;;12.50;99.90;;;;;;5053293;28;20396;-72
2023/01/01 10:28:32;;;;;;;6.07;2.73;;;12.50;99.90;;;;;;5053913;28;20383;-72
2023/01/01 10:31:25;;;;;;;6.50;2.90;;;12.50;99.90;;;;;;5053773;28;20453;-73
2023/01/01 10:33:51;;;;;;;5.83;2.70;;;12.40;99.90;;;;;;5053503;28;20381;-74
2023/01/01 10:36:19;;;;;;;6.23;2.60;;;12.40;99.90;;;;;;5053128;28;20400;-72
2023/01/01 10:38:47;;;;;;;9.40;2.50;;;12.40;99.90;;;;;;5053662;28;20401;-73
2023/01/01 10:41:14;;;;;;;3.40;1.93;;;12.30;99.90;;;;;;5053680;28;20430;-73
2023/01/01 10:43:40;;;;;;;5.40;1.93;;;12.30;99.90;;;;;;5052298;28;20394;-72
2023/01/01 10:46:12;;;;;;;8.33;3.07;;;12.30;99.90;;;;;;5053009;28;20404;-73
2023/01/01 10:48:38;;;;;;;7.67;3.03;;;12.30;99.90;;;;;;5052105;28;20173;-72
2023/01/01 10:51:06;;;;;;;7.13;2.30;;;12.40;99.90;;;;;;5052847;28;20510;-72
2023/01/01 10:53:51;;;;;;;11.53;2.27;;;12.30;99.90;;;;;;5053290;28;20425;-74
2023/01/01 10:56:20;;;;;;;6.03;1.60;;;12.30;99.90;;;;;;5052755;28;20380;-72
2023/01/01 10:58:48;;;;;;;6.20;3.60;;;12.30;99.90;;;;;;5053270;28;20372;-73
2023/01/01 11:01:16;;;;;;;9.80;2.57;;;12.30;99.90;;;;;;5053345;28;20391;-72
2023/01/01 11:03:58;;;;;;;5.33;2.00;;;12.30;99.90;;;;;;5053198;28;20400;-74
2023/01/01 11:06:45;;;;;;;8.33;2.83;;;12.30;99.90;;;;;;5052653;28;20405;-73
2023/01/01 11:09:24;;;;;;;11.90;2.03;;;12.30;99.90;;;;;;5052621;28;20440;-73
2023/01/01 11:12:01;;;;;;;2.80;2.03;;;12.30;99.90;;;;;;5053383;28;20403;-73
2023/01/01 11:14:49;;;;;;;4.57;2.40;;;12.30;99.90;;;;;;5052496;28;20404;-74
2023/01/01 11:17:27;;;;;;;8.70;2.40;;;12.40;99.90;;;;;;5053040;28;20517;-73
2023/01/01 11:19:54;;;;;;;4.70;2.30;;;12.40;99.90;;;;;;5047385;28;20397;-73
2023/01/01 11:22:46;;;;;;;3.57;1.90;;;12.40;99.90;;;;;;5033162;28;20414;-71
2023/01/01 11:25:22;;;;;;;9.23;2.40;;;12.40;99.90;;;;;;5039374;28;20945;-72
2023/01/01 11:27:49;;;;;;;5.70;2.90;;;12.30;99.90;;;;;;5052709;28;20405;-71
2023/01/01 11:30:27;;;;;;;5.63;2.07;;;12.30;99.90;;;;;;5044954;28;20450;-72
2023/01/01 11:33:03;;;;;;;8.63;2.23;;;12.40;99.90;;;;;;5032947;28;20406;-72
2023/01/01 11:35:38;;;;;;;9.63;2.27;;;12.30;99.90;;;;;;5040927;28;20407;-72
2023/01/01 11:38:03;;;;;;;6.23;2.67;;;12.30;99.90;;;;;;5052833;28;20732;-72
2023/01/01 11:40:35;;;;;;;6.63;2.60;;;12.30;99.90;;;;;;5044046;28;20384;-72
2023/01/01 11:43:04;;;;;;;10.43;2.50;;;12.40;99.90;;;;;;5031039;28;20588;-72
2023/01/01 11:45:41;;;;;;;7.60;2.07;;;12.50;99.90;;;;;;5039749;28;20438;-72
2023/01/01 11:48:29;;;;;;;3.13;2.10;;;12.50;99.90;;;;;;5051773;28;20413;-73
2023/01/01 11:51:07;;;;;;;3.90;2.80;;;12.50;99.90;;;;;;5041348;28;21198;-72
2023/01/01 11:53:34;;;;;;;7.60;2.13;;;12.40;99.90;;;;;;5032810;28;20373;-70
2023/01/01 11:56:21;;;;;;;9.43;3.50;;;12.30;99.90;;;;;;5041350;28;20506;-71
2023/01/01 11:58:54;;;;;;;9.20;2.40;;;12.40;99.90;;;;;;5052640;28;20415;-71
2023/01/01 12:01:25;;;;;;;6.63;2.30;;;12.50;99.90;;;;;;5038749;28;20509;-72
2023/01/01 12:03:56;;;;;;;10.03;2.10;;;12.40;99.90;;;;;;5032520;28;20373;-69
2023/01/01 12:06:50;;;;;;;6.63;2.03;;;12.50;99.90;;;;;;5046639;28;20392;-71
2023/01/01 12:09:18;;;;;;;6.73;2.27;;;12.40;99.90;;;;;;5056337;28;20428;-71
2023/01/01 12:11:47;;;;;;;8.10;2.60;;;12.40;99.90;;;;;;5040731;28;20811;-70
2023/01/01 12:14:24;;;;;;;10.60;2.57;;;12.40;99.90;;;;;;5035995;28;20481;-72
2023/01/01 12:17:25;;;;;;;6.20;2.80;;;12.40;99.90;;;;;;5036461;28;20376;-70
2023/01/01 12:20:09;;;;;;;2.60;1.97;;;12.50;99.90;;;;;;5035731;28;20479;-70
2023/01/01 12:22:36;;;;;;;5.93;2.80;;;12.40;99.90;;;;;;5035871;28;20475;-70
2023/01/01 12:25:04;;;;;;;6.77;2.67;;;12.40;99.90;;;;;;5051545;28;20461;-71
2023/01/01 12:28:08;;;;;;;11.53;2.00;;;12.40;99.90;;;;;;5056109;28;20941;-71
2023/01/01 12:30:48;;;;;;;3.27;2.10;;;12.40;99.90;;;;;;5042847;28;20619;-71
2023/01/01 12:33:49;;;;;;;3.57;1.77;;;12.40;99.90;;;;;;5037364;28;20376;-70
2023/01/01 12:36:40;;;;;;;15.83;3.47;;;12.40;99.90;;;;;;5052830;28;20399;-70
2023/01/01 12:39:12;;;;;;;3.77;1.63;;;12.40;99.90;;;;;;5045919;28;20426;-71
2023/01/01 12:42:07;;;;;;;5.50;2.00;;;12.40;99.90;;;;;;5035929;28;20435;-70
2023/01/01 12:45:06;;;;;;;12.00;3.03;;;12.40;99.90;;;;;;5045523;28;20445;-72
2023/01/01 12:47:40;;;;;;;11.10;2.90;;;12.40;99.90;;;;;;5055749;28;20440;-70
2023/01/01 12:50:14;;;;;;;8.33;2.80;;;12.40;99.90;;;;;;5040747;28;20431;-70
2023/01/01 12:52:51;;;;;;;14.60;2.30;;;12.40;99.90;;;;;;5034514;28;20778;-71
2023/01/01 12:55:24;;;;;;;8.77;2.60;;;12.40;99.90;;;;;;5049999;28;20429;-71
2023/01/01 12:58:09;;;;;;;3.90;2.03;;;12.40;99.90;;;;;;5054963;28;20397;-71
2023/01/01 13:00:38;;;;;;;3.50;1.90;;;12.50;99.90;;;;;;5037975;28;20401;-71
2023/01/01 13:03:10;;;;;;;3.67;2.10;;;12.40;99.90;;;;;;5035759;28;20791;-71
2023/01/01 13:05:40;;;;;;;12.50;3.10;;;12.50;99.90;;;;;;5033480;28;20427;-69
2023/01/01 13:08:07;;;;;;;10.73;3.10;;;12.40;99.90;;;;;;5035497;28;20377;-71